sensor_id;sensor_type;location;lat;lon;timestamp;pressure;altitude;pressure_sealevel;temperature;humidity
80640;BME280;69992;60.170;24.692;2024-01-30T00:01:40;102474.18;;;-4.04;33.72
80640;BME280;69992;60.170;24.692;2024-01-30T00:04:07;102470.30;;;-5.99;33.69
80640;BME280;69992;60.170;24.692;2024-01-30T00:06:32;102467.63;;;-5.04;33.75
80640;BME280;69992;60.170;24.692;2024-01-30T00:08:58;102475.05;;;-5.00;33.73
80640;BME280;69992;60.170;24.692;2024-01-30T00:11:24;102478.22;;;-4.01;33.73
80640;BME280;69992;60.170;24.692;2024-01-30T00:13:49;102480.94;;;-4.97;33.74
80640;BME280;69992;60.170;24.692;2024-01-30T00:16:20;102489.05;;;-4.92;33.72
80640;BME280;69992;60.170;24.692;2024-01-30T00:18:40;102494.48;;;-3.93;33.71
80640;BME280;69992;60.170;24.692;2024-01-30T00:21:06;102499.62;;;-5.88;33.72
80640;BME280;69992;60.170;24.692;2024-01-30T00:23:32;102506.93;;;-3.89;33.72
80640;BME280;69992;60.170;24.692;2024-01-30T00:25:58;102506.25;;;-5.82;33.72
80640;BME280;69992;60.170;24.692;2024-01-30T00:28:23;102509.91;;;-4.81;33.70
80640;BME280;69992;60.170;24.692;2024-01-30T00:30:49;102512.88;;;-4.81;33.70
80640;BME280;69992;60.170;24.692;2024-01-30T00:33:15;102513.81;;;-4.78;33.70
80640;BME280;69992;60.170;24.692;2024-01-30T00:35:40;102517.35;;;-3.80;33.70
80640;BME280;69992;60.170;24.692;2024-01-30T00:38:06;102521.65;;;-3.82;33.72
80640;BME280;69992;60.170;24.692;2024-01-30T00:40:31;102525.63;;;-3.81;33.71
80640;BME280;69992;60.170;24.692;2024-01-30T00:43:07;102524.32;;;-5.77;33.72
80640;BME280;69992;60.170;24.692;2024-01-30T00:45:22;102523.30;;;-5.71;33.70
80640;BME280;69992;60.170;24.692;2024-01-30T00:47:48;102523.99;;;-4.75;33.70
80640;BME280;69992;60.170;24.692;2024-01-30T00:50:14;102525.39;;;-5.71;33.70
80640;BME280;69992;60.170;24.692;2024-01-30T00:52:39;102526.13;;;-3.79;33.69
80640;BME280;69992;60.170;24.692;2024-01-30T00:55:05;102526.93;;;-4.78;33.68
80640;BME280;69992;60.170;24.692;2024-01-30T00:57:30;102533.03;;;-4.85;33.69
80640;BME280;69992;60.170;24.692;2024-01-30T00:59:57;102537.97;;;-5.83;33.69
80640;BME280;69992;60.170;24.692;2024-01-30T01:02:22;102539.92;;;-3.86;33.68
80640;BME280;69992;60.170;24.692;2024-01-30T01:04:48;102540.56;;;-4.84;33.67
80640;BME280;69992;60.170;24.692;2024-01-30T01:07:14;102535.76;;;-4.89;33.68
80640;BME280;69992;60.170;24.692;2024-01-30T01:09:40;102535.55;;;-4.89;33.68
80640;BME280;69992;60.170;24.692;2024-01-30T01:12:06;102532.45;;;-5.92;33.68
80640;BME280;69992;60.170;24.692;2024-01-30T01:14:31;102532.45;;;-3.97;33.68
80640;BME280;69992;60.170;24.692;2024-01-30T01:16:56;102534.83;;;-5.95;33.69
80640;BME280;69992;60.170;24.692;2024-01-30T01:19:22;102531.46;;;-3.96;33.67
80640;BME280;69992;60.170;24.692;2024-01-30T01:21:47;102535.24;;;-5.91;33.66
80640;BME280;69992;60.170;24.692;2024-01-30T01:24:13;102534.44;;;-4.96;33.66
80640;BME280;69992;60.170;24.692;2024-01-30T01:26:39;102532.51;;;-4.03;33.68
80640;BME280;69992;60.170;24.692;2024-01-30T01:29:06;102532.81;;;-5.04;33.67
80640;BME280;69992;60.170;24.692;2024-01-30T01:31:31;102531.83;;;-5.05;33.66
80640;BME280;69992;60.170;24.692;2024-01-30T01:33:56;102530.71;;;-6.07;33.67
80640;BME280;69992;60.170;24.692;2024-01-30T01:36:22;102527.78;;;-4.11;33.66
80640;BME280;69992;60.170;24.692;2024-01-30T01:38:48;102526.51;;;-4.14;33.65
80640;BME280;69992;60.170;24.692;2024-01-30T01:41:14;102525.22;;;-4.15;33.64
80640;BME280;69992;60.170;24.692;2024-01-30T01:43:42;102526.08;;;-4.16;33.63
80640;BME280;69992;60.170;24.692;2024-01-30T01:46:05;102525.65;;;-6.15;33.64
80640;BME280;69992;60.170;24.692;2024-01-30T01:48:30;102528.56;;;-6.19;33.64
80640;BME280;69992;60.170;24.692;2024-01-30T01:50:56;102529.27;;;-6.22;33.65
80640;BME280;69992;60.170;24.692;2024-01-30T01:53:21;102524.64;;;-6.22;33.64
80640;BME280;69992;60.170;24.692;2024-01-30T01:55:50;102525.22;;;-4.29;33.63
80640;BME280;69992;60.170;24.692;2024-01-30T01:58:13;102525.89;;;-4.27;33.61
80640;BME280;69992;60.170;24.692;2024-01-30T02:00:38;102525.25;;;-4.30;33.59
80640;BME280;69992;60.170;24.692;2024-01-30T02:03:04;102522.14;;;-4.35;33.60
80640;BME280;69992;60.170;24.692;2024-01-30T02:05:30;102517.11;;;-4.41;33.59
80640;BME280;69992;60.170;24.692;2024-01-30T02:07:56;102518.78;;;-4.49;33.60
80640;BME280;69992;60.170;24.692;2024-01-30T02:10:20;102520.66;;;-4.56;33.62
80640;BME280;69992;60.170;24.692;2024-01-30T02:12:46;102522.00;;;-4.61;33.62
80640;BME280;69992;60.170;24.692;2024-01-30T02:15:13;102522.09;;;-4.66;33.65
80640;BME280;69992;60.170;24.692;2024-01-30T02:17:36;102523.07;;;-4.66;33.64
80640;BME280;69992;60.170;24.692;2024-01-30T02:20:06;102523.69;;;-4.68;33.63
80640;BME280;69992;60.170;24.692;2024-01-30T02:22:29;102521.70;;;-4.73;33.58
80640;BME280;69992;60.170;24.692;2024-01-30T02:24:54;102521.49;;;-4.85;33.59
80640;BME280;69992;60.170;24.692;2024-01-30T02:27:19;102518.09;;;-5.97;33.62
80640;BME280;69992;60.170;24.692;2024-01-30T02:29:44;102516.31;;;-5.14;33.65
80640;BME280;69992;60.170;24.692;2024-01-30T02:32:10;102510.95;;;-5.19;33.65
80640;BME280;69992;60.170;24.692;2024-01-30T02:34:35;102507.64;;;-5.26;33.63
80640;BME280;69992;60.170;24.692;2024-01-30T02:37:01;102506.49;;;-5.39;33.63
80640;BME280;69992;60.170;24.692;2024-01-30T02:39:26;102507.01;;;-5.49;33.60
80640;BME280;69992;60.170;24.692;2024-01-30T02:41:53;102507.14;;;-4.66;33.63
80640;BME280;69992;60.170;24.692;2024-01-30T02:44:18;102507.30;;;-5.76;33.66
80640;BME280;69992;60.170;24.692;2024-01-30T02:46:44;102506.20;;;-5.87;33.66
80640;BME280;69992;60.170;24.692;2024-01-30T02:49:09;102508.32;;;-5.95;33.66
80640;BME280;69992;60.170;24.692;2024-01-30T02:51:35;102507.66;;;-6.06;33.67
80640;BME280;69992;60.170;24.692;2024-01-30T02:54:01;102507.49;;;-7.08;33.67
80640;BME280;69992;60.170;24.692;2024-01-30T02:56:26;102511.03;;;-6.14;33.66
80640;BME280;69992;60.170;24.692;2024-01-30T02:58:51;102515.76;;;-5.22;33.63
80640;BME280;69992;60.170;24.692;2024-01-30T03:01:17;102517.79;;;-5.26;33.64
80640;BME280;69992;60.170;24.692;2024-01-30T03:03:43;102519.32;;;-5.33;33.62
80640;BME280;69992;60.170;24.692;2024-01-30T03:06:08;102522.13;;;-5.40;33.60
80640;BME280;69992;60.170;24.692;2024-01-30T03:08:33;102523.64;;;-6.50;33.60
80640;BME280;69992;60.170;24.692;2024-01-30T03:10:59;102524.94;;;-6.62;33.61
80640;BME280;69992;60.170;24.692;2024-01-30T03:13:24;102529.43;;;-5.70;33.63
80640;BME280;69992;60.170;24.692;2024-01-30T03:15:50;102533.45;;;-5.82;33.60
80640;BME280;69992;60.170;24.692;2024-01-30T03:18:16;102541.13;;;-6.88;33.59
80640;BME280;69992;60.170;24.692;2024-01-30T03:20:41;102544.83;;;-5.09;33.62
80640;BME280;69992;60.170;24.692;2024-01-30T03:23:07;102547.83;;;-5.24;33.64
80640;BME280;69992;60.170;24.692;2024-01-30T03:25:32;102546.76;;;-5.32;33.67
80640;BME280;69992;60.170;24.692;2024-01-30T03:27:58;102548.62;;;-6.33;33.65
80640;BME280;69992;60.170;24.692;2024-01-30T03:30:24;102550.03;;;-5.43;33.63
80640;BME280;69992;60.170;24.692;2024-01-30T03:32:49;102547.55;;;-6.48;33.63
80640;BME280;69992;60.170;24.692;2024-01-30T03:35:15;102547.95;;;-5.51;33.61
80640;BME280;69992;60.170;24.692;2024-01-30T03:37:40;102551.16;;;-5.52;33.60
80640;BME280;69992;60.170;24.692;2024-01-30T03:40:06;102557.19;;;-6.51;33.60
80640;BME280;69992;60.170;24.692;2024-01-30T03:42:31;102561.99;;;-5.55;33.57
80640;BME280;69992;60.170;24.692;2024-01-30T03:44:57;102567.08;;;-5.64;33.55
80640;BME280;69992;60.170;24.692;2024-01-30T03:47:22;102572.99;;;-5.71;33.54
80640;BME280;69992;60.170;24.692;2024-01-30T03:49:47;102571.46;;;-6.79;33.55
80640;BME280;69992;60.170;24.692;2024-01-30T03:52:13;102569.72;;;-6.83;33.57
80640;BME280;69992;60.170;24.692;2024-01-30T03:54:38;102576.97;;;-5.85;33.56
80640;BME280;69992;60.170;24.692;2024-01-30T03:57:04;102581.00;;;-6.86;33.57
80640;BME280;69992;60.170;24.692;2024-01-30T03:59:29;102583.01;;;-5.90;33.56
80640;BME280;69992;60.170;24.692;2024-01-30T04:01:54;102591.26;;;-6.91;33.55
80640;BME280;69992;60.170;24.692;2024-01-30T04:04:20;102592.60;;;-5.95;33.53
80640;BME280;69992;60.170;24.692;2024-01-30T04:06:45;102596.22;;;-6.01;33.54
80640;BME280;69992;60.170;24.692;2024-01-30T04:09:10;102601.12;;;-6.02;33.53
80640;BME280;69992;60.170;24.692;2024-01-30T04:11:36;102602.90;;;-6.03;33.52
80640;BME280;69992;60.170;24.692;2024-01-30T04:14:02;102598.79;;;-7.02;33.49
80640;BME280;69992;60.170;24.692;2024-01-30T04:16:27;102597.22;;;-6.12;33.50
80640;BME280;69992;60.170;24.692;2024-01-30T04:18:54;102597.90;;;-6.17;33.49
80640;BME280;69992;60.170;24.692;2024-01-30T04:21:20;102596.68;;;-7.28;33.50
80640;BME280;69992;60.170;24.692;2024-01-30T04:23:44;102597.36;;;-6.41;33.46
80640;BME280;69992;60.170;24.692;2024-01-30T04:26:09;102598.31;;;-6.55;33.49
80640;BME280;69992;60.170;24.692;2024-01-30T04:28:35;102596.92;;;-6.72;33.50
80640;BME280;69992;60.170;24.692;2024-01-30T04:31:04;102603.97;;;-6.82;33.51
80640;BME280;69992;60.170;24.692;2024-01-30T04:33:27;102605.85;;;-6.91;33.49
80640;BME280;69992;60.170;24.692;2024-01-30T04:35:53;102609.70;;;-6.96;33.52
80640;BME280;69992;60.170;24.692;2024-01-30T04:38:18;102612.50;;;-6.92;33.51
80640;BME280;69992;60.170;24.692;2024-01-30T04:40:43;102609.10;;;-5.94;33.49
80640;BME280;69992;60.170;24.692;2024-01-30T04:43:09;102611.13;;;-6.94;33.46
80640;BME280;69992;60.170;24.692;2024-01-30T04:45:34;102613.01;;;-7.01;33.42
80640;BME280;69992;60.170;24.692;2024-01-30T04:48:00;102612.30;;;-7.10;33.47
80640;BME280;69992;60.170;24.692;2024-01-30T04:50:25;102614.79;;;-7.03;33.45
80640;BME280;69992;60.170;24.692;2024-01-30T04:52:50;102613.37;;;-6.97;33.42
80640;BME280;69992;60.170;24.692;2024-01-30T04:55:19;102612.97;;;-6.97;33.41
80640;BME280;69992;60.170;24.692;2024-01-30T04:57:41;102613.10;;;-6.98;33.39
80640;BME280;69992;60.170;24.692;2024-01-30T05:00:07;102615.34;;;-6.17;33.37
80640;BME280;69992;60.170;24.692;2024-01-30T05:02:31;102614.16;;;-7.32;33.37
80640;BME280;69992;60.170;24.692;2024-01-30T05:04:56;102615.78;;;-7.45;33.41
80640;BME280;69992;60.170;24.692;2024-01-30T05:07:22;102616.02;;;-7.45;33.45
80640;BME280;69992;60.170;24.692;2024-01-30T05:09:47;102620.43;;;-6.52;33.41
80640;BME280;69992;60.170;24.692;2024-01-30T05:12:12;102621.74;;;-7.53;33.42
80640;BME280;69992;60.170;24.692;2024-01-30T05:14:38;102622.52;;;-7.52;33.44
80640;BME280;69992;60.170;24.692;2024-01-30T05:17:04;102622.32;;;-7.44;33.40
80640;BME280;69992;60.170;24.692;2024-01-30T05:19:32;102619.19;;;-7.38;33.37
80640;BME280;69992;60.170;24.692;2024-01-30T05:21:55;102618.93;;;-7.33;33.37
80640;BME280;69992;60.170;24.692;2024-01-30T05:24:20;102618.30;;;-7.20;33.34
80640;BME280;69992;60.170;24.692;2024-01-30T05:26:45;102619.36;;;-7.15;33.32
80640;BME280;69992;60.170;24.692;2024-01-30T05:29:11;102622.45;;;-7.19;33.29
80640;BME280;69992;60.170;24.692;2024-01-30T05:31:37;102622.04;;;-7.39;33.31
80640;BME280;69992;60.170;24.692;2024-01-30T05:34:03;102623.03;;;-7.46;33.37
80640;BME280;69992;60.170;24.692;2024-01-30T05:36:29;102621.67;;;-6.45;33.34
80640;BME280;69992;60.170;24.692;2024-01-30T05:38:55;102623.05;;;-7.53;33.36
80640;BME280;69992;60.170;24.692;2024-01-30T05:41:20;102626.29;;;-7.49;33.37
80640;BME280;69992;60.170;24.692;2024-01-30T05:43:46;102627.97;;;-7.44;33.36
80640;BME280;69992;60.170;24.692;2024-01-30T05:46:12;102630.94;;;-7.38;33.34
80640;BME280;69992;60.170;24.692;2024-01-30T05:48:37;102633.32;;;-7.39;33.28
80640;BME280;69992;60.170;24.692;2024-01-30T05:51:03;102634.19;;;-7.44;33.29
80640;BME280;69992;60.170;24.692;2024-01-30T05:53:28;102643.47;;;-6.44;33.30
80640;BME280;69992;60.170;24.692;2024-01-30T05:55:55;102645.65;;;-6.44;33.29
80640;BME280;69992;60.170;24.692;2024-01-30T05:58:20;102644.95;;;-7.38;33.26
80640;BME280;69992;60.170;24.692;2024-01-30T06:00:46;102645.14;;;-5.43;33.26
80640;BME280;69992;60.170;24.692;2024-01-30T06:03:11;102647.69;;;-7.41;33.27
80640;BME280;69992;60.170;24.692;2024-01-30T06:05:37;102650.49;;;-6.48;33.23
80640;BME280;69992;60.170;24.692;2024-01-30T06:08:02;102651.83;;;-6.52;33.24
80640;BME280;69992;60.170;24.692;2024-01-30T06:10:27;102652.90;;;-6.56;33.25
80640;BME280;69992;60.170;24.692;2024-01-30T06:12:54;102650.83;;;-7.58;33.27
80640;BME280;69992;60.170;24.692;2024-01-30T06:15:19;102656.63;;;-6.60;33.29
80640;BME280;69992;60.170;24.692;2024-01-30T06:17:44;102656.43;;;-6.52;33.22
80640;BME280;69992;60.170;24.692;2024-01-30T06:20:10;102658.41;;;-6.51;33.22
80640;BME280;69992;60.170;24.692;2024-01-30T06:22:36;102663.69;;;-7.52;33.21
80640;BME280;69992;60.170;24.692;2024-01-30T06:25:02;102663.38;;;-5.60;33.21
80640;BME280;69992;60.170;24.692;2024-01-30T06:27:27;102663.46;;;-6.62;33.22
80640;BME280;69992;60.170;24.692;2024-01-30T06:29:58;102662.54;;;-5.82;33.19
80640;BME280;69992;60.170;24.692;2024-01-30T06:32:18;102661.04;;;-7.83;33.24
80640;BME280;69992;60.170;24.692;2024-01-30T06:34:44;102659.15;;;-6.88;33.23
80640;BME280;69992;60.170;24.692;2024-01-30T06:37:10;102655.70;;;-6.98;33.25
80640;BME280;69992;60.170;24.692;2024-01-30T06:39:36;102656.71;;;-5.99;33.24
80640;BME280;69992;60.170;24.692;2024-01-30T06:42:01;102658.95;;;-7.93;33.24
80640;BME280;69992;60.170;24.692;2024-01-30T06:44:27;102663.68;;;-7.93;33.23
80640;BME280;69992;60.170;24.692;2024-01-30T06:46:53;102665.46;;;-5.99;33.24
80640;BME280;69992;60.170;24.692;2024-01-30T06:49:17;102667.12;;;-7.91;33.22
80640;BME280;69992;60.170;24.692;2024-01-30T06:51:43;102669.56;;;-6.93;33.21
80640;BME280;69992;60.170;24.692;2024-01-30T06:54:08;102665.47;;;-6.92;33.20
80640;BME280;69992;60.170;24.692;2024-01-30T06:56:34;102664.57;;;-7.92;33.16
80640;BME280;69992;60.170;24.692;2024-01-30T06:59:02;102662.48;;;-8.04;33.16
80640;BME280;69992;60.170;24.692;2024-01-30T07:01:28;102662.48;;;-6.16;33.15
80640;BME280;69992;60.170;24.692;2024-01-30T07:03:50;102663.40;;;-6.24;33.17
80640;BME280;69992;60.170;24.692;2024-01-30T07:06:15;102670.41;;;-7.19;33.20
80640;BME280;69992;60.170;24.692;2024-01-30T07:08:41;102671.53;;;-6.21;33.19
80640;BME280;69992;60.170;24.692;2024-01-30T07:11:06;102670.47;;;-8.17;33.18
80640;BME280;69992;60.170;24.692;2024-01-30T07:13:32;102670.95;;;-6.19;33.17
80640;BME280;69992;60.170;24.692;2024-01-30T07:15:57;102670.06;;;-8.17;33.16
80640;BME280;69992;60.170;24.692;2024-01-30T07:18:22;102673.57;;;-8.09;33.16
80640;BME280;69992;60.170;24.692;2024-01-30T07:20:48;102671.71;;;-7.06;33.15
80640;BME280;69992;60.170;24.692;2024-01-30T07:23:13;102673.34;;;-7.02;33.15
80640;BME280;69992;60.170;24.692;2024-01-30T07:25:38;102674.23;;;-6.95;33.13
80640;BME280;69992;60.170;24.692;2024-01-30T07:28:04;102674.93;;;-7.83;33.11
80640;BME280;69992;60.170;24.692;2024-01-30T07:30:30;102676.83;;;-6.80;33.09
80640;BME280;69992;60.170;24.692;2024-01-30T07:32:55;102678.13;;;-7.82;33.08
80640;BME280;69992;60.170;24.692;2024-01-30T07:35:21;102677.03;;;-7.86;33.11
80640;BME280;69992;60.170;24.692;2024-01-30T07:37:46;102675.51;;;-7.88;33.14
80640;BME280;69992;60.170;24.692;2024-01-30T07:40:11;102673.68;;;-6.86;33.15
80640;BME280;69992;60.170;24.692;2024-01-30T07:42:36;102673.93;;;-7.75;33.14
80640;BME280;69992;60.170;24.692;2024-01-30T07:45:01;102674.09;;;-7.61;33.12
80640;BME280;69992;60.170;24.692;2024-01-30T07:47:26;102677.82;;;-7.48;33.09
80640;BME280;69992;60.170;24.692;2024-01-30T07:49:51;102679.78;;;-7.44;33.07
80640;BME280;69992;60.170;24.692;2024-01-30T07:52:16;102682.26;;;-7.36;33.08
80640;BME280;69992;60.170;24.692;2024-01-30T07:54:42;102684.15;;;-7.25;33.06
80640;BME280;69992;60.170;24.692;2024-01-30T07:57:08;102686.06;;;-6.17;33.06
80640;BME280;69992;60.170;24.692;2024-01-30T07:59:33;102688.73;;;-7.08;33.06
80640;BME280;69992;60.170;24.692;2024-01-30T08:01:58;102688.41;;;-6.96;33.06
80640;BME280;69992;60.170;24.692;2024-01-30T08:04:23;102686.18;;;-6.87;33.03
80640;BME280;69992;60.170;24.692;2024-01-30T08:06:49;102685.11;;;-6.79;33.03
80640;BME280;69992;60.170;24.692;2024-01-30T08:09:14;102684.65;;;-6.70;33.02
80640;BME280;69992;60.170;24.692;2024-01-30T08:11:40;102681.68;;;-6.67;33.00
80640;BME280;69992;60.170;24.692;2024-01-30T08:14:05;102685.41;;;-6.60;33.01
80640;BME280;69992;60.170;24.692;2024-01-30T08:16:30;102685.83;;;-6.49;33.03
80640;BME280;69992;60.170;24.692;2024-01-30T08:18:56;102679.61;;;-7.32;33.03
80640;BME280;69992;60.170;24.692;2024-01-30T08:21:22;102676.23;;;-6.23;33.01
80640;BME280;69992;60.170;24.692;2024-01-30T08:23:48;102674.85;;;-6.12;33.01
80640;BME280;69992;60.170;24.692;2024-01-30T08:26:13;102674.66;;;-5.96;33.01
80640;BME280;69992;60.170;24.692;2024-01-30T08:28:39;102675.16;;;-5.80;32.99
80640;BME280;69992;60.170;24.692;2024-01-30T08:31:04;102674.25;;;-6.65;32.98
80640;BME280;69992;60.170;24.692;2024-01-30T08:33:30;102673.93;;;-6.51;32.99
80640;BME280;69992;60.170;24.692;2024-01-30T08:35:59;102677.88;;;-6.37;32.99
80640;BME280;69992;60.170;24.692;2024-01-30T08:38:21;102677.36;;;-5.24;32.97
80640;BME280;69992;60.170;24.692;2024-01-30T08:40:47;102680.66;;;-6.17;32.96
80640;BME280;69992;60.170;24.692;2024-01-30T08:43:12;102680.83;;;-6.10;32.95
80640;BME280;69992;60.170;24.692;2024-01-30T08:45:38;102680.59;;;-5.11;32.98
80640;BME280;69992;60.170;24.692;2024-01-30T08:48:04;102681.68;;;-7.16;33.02
80640;BME280;69992;60.170;24.692;2024-01-30T08:50:29;102682.12;;;-6.10;33.02
80640;BME280;69992;60.170;24.692;2024-01-30T08:52:54;102679.46;;;-5.02;33.03
80640;BME280;69992;60.170;24.692;2024-01-30T08:55:20;102676.59;;;-5.93;33.04
80640;BME280;69992;60.170;24.692;2024-01-30T08:57:45;102672.20;;;-4.88;33.04
80640;BME280;69992;60.170;24.692;2024-01-30T09:00:12;102670.11;;;-6.73;33.06
80640;BME280;69992;60.170;24.692;2024-01-30T09:02:36;102669.03;;;-4.64;33.04
80640;BME280;69992;60.170;24.692;2024-01-30T09:05:02;102670.10;;;-5.49;33.04
80640;BME280;69992;60.170;24.692;2024-01-30T09:07:27;102668.89;;;-5.40;33.03
80640;BME280;69992;60.170;24.692;2024-01-30T09:09:53;102672.28;;;-4.30;33.02
80640;BME280;69992;60.170;24.692;2024-01-30T09:12:18;102672.42;;;-6.20;33.01
80640;BME280;69992;60.170;24.692;2024-01-30T09:14:44;102669.92;;;-4.16;33.00
80640;BME280;69992;60.170;24.692;2024-01-30T09:17:10;102669.97;;;-6.09;33.03
80640;BME280;69992;60.170;24.692;2024-01-30T09:19:35;102668.89;;;-5.96;33.04
80640;BME280;69992;60.170;24.692;2024-01-30T09:22:01;102667.98;;;-4.82;33.04
80640;BME280;69992;60.170;24.692;2024-01-30T09:24:27;102666.87;;;-5.67;33.03
80640;BME280;69992;60.170;24.692;2024-01-30T09:26:51;102668.18;;;-4.53;33.03
80640;BME280;69992;60.170;24.692;2024-01-30T09:29:17;102666.94;;;-4.37;33.04
80640;BME280;69992;60.170;24.692;2024-01-30T09:31:43;102667.09;;;-5.19;33.05
80640;BME280;69992;60.170;24.692;2024-01-30T09:34:08;102670.48;;;-5.06;33.05
80640;BME280;69992;60.170;24.692;2024-01-30T09:36:34;102670.31;;;-3.97;33.06
80640;BME280;69992;60.170;24.692;2024-01-30T09:39:00;102667.51;;;-4.80;33.06
80640;BME280;69992;60.170;24.692;2024-01-30T09:41:25;102665.64;;;-4.65;33.04
80640;BME280;69992;60.170;24.692;2024-01-30T09:43:51;102662.27;;;-4.54;33.05
80640;BME280;69992;60.170;24.692;2024-01-30T09:46:17;102663.63;;;-4.43;33.07
80640;BME280;69992;60.170;24.692;2024-01-30T09:48:42;102665.15;;;-4.32;33.08
80640;BME280;69992;60.170;24.692;2024-01-30T09:51:08;102659.16;;;-4.24;33.10
80640;BME280;69992;60.170;24.692;2024-01-30T09:53:33;102656.33;;;-4.15;33.12
80640;BME280;69992;60.170;24.692;2024-01-30T09:55:58;102657.67;;;-5.02;33.12
80640;BME280;69992;60.170;24.692;2024-01-30T09:58:23;102657.31;;;-3.98;33.11
80640;BME280;69992;60.170;24.692;2024-01-30T10:00:48;102656.07;;;-4.03;33.10
80640;BME280;69992;60.170;24.692;2024-01-30T10:03:14;102652.26;;;-4.02;33.14
80640;BME280;69992;60.170;24.692;2024-01-30T10:05:49;102653.03;;;-4.97;33.18
80640;BME280;69992;60.170;24.692;2024-01-30T10:08:06;102650.85;;;-5.85;33.18
80640;BME280;69992;60.170;24.692;2024-01-30T10:10:30;102652.31;;;-3.85;33.17
80640;BME280;69992;60.170;24.692;2024-01-30T10:12:56;102652.07;;;-4.77;33.19
80640;BME280;69992;60.170;24.692;2024-01-30T10:15:22;102655.00;;;-4.65;33.18
80640;BME280;69992;60.170;24.692;2024-01-30T10:17:47;102656.03;;;-3.58;33.18
80640;BME280;69992;60.170;24.692;2024-01-30T10:20:13;102653.82;;;-5.41;33.17
80640;BME280;69992;60.170;24.692;2024-01-30T10:22:40;102654.17;;;-5.25;33.18
80640;BME280;69992;60.170;24.692;2024-01-30T10:25:05;102651.38;;;-5.05;33.17
80640;BME280;69992;60.170;24.692;2024-01-30T10:27:31;102652.54;;;-2.91;33.14
80640;BME280;69992;60.170;24.692;2024-01-30T10:29:56;102654.29;;;-8.53;33.13
80640;BME280;69992;60.170;24.692;2024-01-30T10:32:20;102652.41;;;-3.40;32.51
80640;BME280;69992;60.170;24.692;2024-01-30T10:34:46;102647.82;;;-3.85;32.71
80640;BME280;69992;60.170;24.692;2024-01-30T10:37:12;102643.35;;;-4.18;32.93
80640;BME280;69992;60.170;24.692;2024-01-30T10:39:38;102642.24;;;-4.32;33.10
80640;BME280;69992;60.170;24.692;2024-01-30T10:42:04;102637.67;;;-5.25;33.15
80640;BME280;69992;60.170;24.692;2024-01-30T10:44:30;102641.00;;;-4.31;33.18
80640;BME280;69992;60.170;24.692;2024-01-30T10:47:00;102636.92;;;-3.28;33.19
80640;BME280;69992;60.170;24.692;2024-01-30T10:49:20;102635.08;;;-4.23;33.23
80640;BME280;69992;60.170;24.692;2024-01-30T10:51:45;102636.26;;;-4.18;33.28
80640;BME280;69992;60.170;24.692;2024-01-30T10:54:11;102636.04;;;-5.06;33.29
80640;BME280;69992;60.170;24.692;2024-01-30T10:56:36;102633.13;;;-3.99;33.28
80640;BME280;69992;60.170;24.692;2024-01-30T10:59:02;102634.25;;;-4.90;33.29
80640;BME280;69992;60.170;24.692;2024-01-30T11:01:28;102632.05;;;-3.98;33.34
80640;BME280;69992;60.170;24.692;2024-01-30T11:03:53;102630.23;;;-3.84;33.39
80640;BME280;69992;60.170;24.692;2024-01-30T11:06:18;102627.45;;;-3.71;33.39
80640;BME280;69992;60.170;24.692;2024-01-30T11:08:44;102626.00;;;-3.63;33.41
80640;BME280;69992;60.170;24.692;2024-01-30T11:11:10;102624.64;;;-4.54;33.41
80640;BME280;69992;60.170;24.692;2024-01-30T11:13:35;102624.75;;;-4.51;33.43
80640;BME280;69992;60.170;24.692;2024-01-30T11:16:02;102622.56;;;-3.45;33.44
80640;BME280;69992;60.170;24.692;2024-01-30T11:18:27;102625.33;;;-3.34;33.42
80640;BME280;69992;60.170;24.692;2024-01-30T11:20:51;102625.96;;;-3.31;33.42
80640;BME280;69992;60.170;24.692;2024-01-30T11:23:17;102624.98;;;-4.26;33.45
80640;BME280;69992;60.170;24.692;2024-01-30T11:25:44;102626.70;;;-3.24;33.47
80640;BME280;69992;60.170;24.692;2024-01-30T11:28:13;102626.77;;;-4.15;33.46
80640;BME280;69992;60.170;24.692;2024-01-30T11:30:33;102630.85;;;-3.13;33.44
80640;BME280;69992;60.170;24.692;2024-01-30T11:33:01;102631.23;;;-5.23;33.50
80640;BME280;69992;60.170;24.692;2024-01-30T11:35:25;102632.70;;;-4.15;33.50
80640;BME280;69992;60.170;24.692;2024-01-30T11:37:50;102631.01;;;-4.09;33.49
80640;BME280;69992;60.170;24.692;2024-01-30T11:40:16;102628.31;;;-4.19;33.49
80640;BME280;69992;60.170;24.692;2024-01-30T11:42:42;102623.15;;;-4.36;33.53
80640;BME280;69992;60.170;24.692;2024-01-30T11:45:08;102621.70;;;-3.48;33.57
80640;BME280;69992;60.170;24.692;2024-01-30T11:47:35;102622.23;;;-3.55;33.59
80640;BME280;69992;60.170;24.692;2024-01-30T11:49:59;102619.11;;;-4.50;33.61
80640;BME280;69992;60.170;24.692;2024-01-30T11:52:25;102618.32;;;-3.41;33.59
80640;BME280;69992;60.170;24.692;2024-01-30T11:55:00;102612.53;;;-3.33;33.58
80640;BME280;69992;60.170;24.692;2024-01-30T11:57:19;102608.01;;;-4.13;33.60
80640;BME280;69992;60.170;24.692;2024-01-30T11:59:42;102609.49;;;-2.94;33.56
80640;BME280;69992;60.170;24.692;2024-01-30T12:02:08;102609.79;;;-2.95;33.59
80640;BME280;69992;60.170;24.692;2024-01-30T12:04:33;102610.22;;;-2.82;33.59
80640;BME280;69992;60.170;24.692;2024-01-30T12:06:59;102610.87;;;-3.64;33.59
80640;BME280;69992;60.170;24.692;2024-01-30T12:09:27;102606.90;;;-2.50;33.57
80640;BME280;69992;60.170;24.692;2024-01-30T12:11:50;102602.86;;;-2.43;33.56
80640;BME280;69992;60.170;24.692;2024-01-30T12:14:16;102604.36;;;-3.35;33.57
80640;BME280;69992;60.170;24.692;2024-01-30T12:16:41;102603.33;;;-3.28;33.56
80640;BME280;69992;60.170;24.692;2024-01-30T12:19:06;102600.40;;;-4.18;33.58
80640;BME280;69992;60.170;24.692;2024-01-30T12:21:33;102598.39;;;-3.12;33.55
80640;BME280;69992;60.170;24.692;2024-01-30T12:23:58;102596.77;;;-4.17;33.57
80640;BME280;69992;60.170;24.692;2024-01-30T12:26:24;102592.71;;;-3.15;33.59
80640;BME280;69992;60.170;24.692;2024-01-30T12:28:50;102590.79;;;-3.12;33.59
80640;BME280;69992;60.170;24.692;2024-01-30T12:31:15;102589.21;;;-4.10;33.61